Time;durP1;ratioP1;P1;durP2;ratioP2;P2;SDS_P1;SDS_P2;PMS_P1;PMS_P2;Temp;Humidity;BMP_temperature;BMP_pressure;BME280_temperature;BME280_humidity;BME280_pressure;Samples;Min_cycle;Max_cycle;Signal;HPM_P1;HPM_P2
2021/04/05 00:00:05;;;;;;;4.55;2.53;;;;;;;;;;3587806;40;20366;-68
2021/04/05 00:02:31;;;;;;;2.47;2.08;;;;;;;;;;3586592;40;20370;-68
2021/04/05 00:04:58;;;;;;;3.58;2.15;;;;;;;;;;3581729;40;20406;-68
2021/04/05 00:07:24;;;;;;;3.22;2.30;;;;;;;;;;3580002;40;20712;-69
2021/04/05 00:09:50;;;;;;;3.42;2.30;;;;;;;;;;3586819;40;20374;-68
2021/04/05 00:12:17;;;;;;;3.75;2.72;;;7.70;99.90;;;;;;3587159;40;20371;-67
2021/04/05 00:14:43;;;;;;;2.42;2.20;;;7.40;99.90;;;;;;3577549;40;20768;-68
2021/04/05 00:17:11;;;;;;;3.58;2.22;;;7.30;99.90;;;;;;3587280;40;20628;-68
2021/04/05 00:19:39;;;;;;;4.40;2.45;;;7.40;99.90;;;;;;3582705;40;20451;-68
2021/04/05 00:22:05;;;;;;;2.85;2.30;;;7.40;99.90;;;;;;3582924;40;20361;-68
2021/04/05 00:24:31;;;;;;;3.70;2.00;;;7.40;99.70;;;;;;3580977;40;20386;-68
2021/04/05 00:26:57;;;;;;;3.30;2.40;;;7.40;99.60;;;;;;3586974;40;20510;-68
2021/04/05 00:29:24;;;;;;;2.70;2.03;;;7.50;99.80;;;;;;3589453;40;20385;-68
2021/04/05 00:31:50;;;;;;;2.67;2.35;;;7.40;99.90;;;;;;3584143;40;20404;-68
2021/04/05 00:34:16;;;;;;;4.03;2.70;;;7.30;99.90;;;;;;3586108;40;20371;-68
2021/04/05 00:36:42;;;;;;;4.15;2.42;;;7.20;99.90;;;;;;3587296;40;20382;-68
2021/04/05 00:39:08;;;;;;;2.40;2.15;;;;;;;;;;3581236;40;20375;-68
2021/04/05 00:41:34;;;;;;;4.60;2.58;;;;;;;;;;3581080;40;20418;-68
2021/04/05 00:44:01;;;;;;;4.88;2.90;;;;;;;;;;3582537;40;20375;-67
2021/04/05 00:46:28;;;;;;;4.70;3.08;;;;;;;;;;3587218;40;20378;-68
2021/04/05 00:48:54;;;;;;;4.80;2.70;;;;;;;;;;3577473;40;20457;-68
2021/04/05 00:51:21;;;;;;;2.40;2.20;;;;;;;;;;3589519;40;20379;-69
2021/04/05 00:53:48;;;;;;;3.58;2.35;;;;;;;;;;3585075;40;20398;-68
2021/04/05 00:56:15;;;;;;;2.88;1.80;;;;;;;;;;3586209;40;20381;-67
2021/04/05 00:58:42;;;;;;;3.50;1.85;;;;;;;;;;3579267;40;20388;-67
2021/04/05 01:01:10;;;;;;;2.08;1.45;;;;;;;;;;3567591;40;20482;-70
2021/04/05 01:03:38;;;;;;;2.63;1.50;;;;;;;;;;3600318;23;20425;-68
2021/04/05 01:06:06;;;;;;;3.93;1.97;;;;;;;;;;3566899;40;20431;-68
2021/04/05 01:08:32;;;;;;;2.00;1.25;;;;;;;;;;3563290;40;20370;-69
2021/04/05 01:10:59;;;;;;;4.28;1.60;;;;;;;;;;3567380;40;20397;-69
2021/04/05 01:13:25;;;;;;;1.90;1.40;;;;;;;;;;3558508;40;20512;-69
2021/04/05 01:15:51;;;;;;;1.98;1.77;;;;;;;;;;3567442;40;20397;-69
2021/04/05 01:18:18;;;;;;;6.25;1.90;;;;;;;;;;3555390;40;20406;-72
2021/04/05 01:20:45;;;;;;;2.50;2.10;;;;;;;;;;3566752;40;20786;-71
2021/04/05 01:23:12;;;;;;;2.88;2.55;;;;;;;;;;3558377;40;20470;-72
2021/04/05 01:25:39;;;;;;;4.18;2.28;;;;;;;;;;3567524;40;20843;-72
2021/04/05 01:28:05;;;;;;;1.88;1.75;;;;;;;;;;3562875;40;20487;-70
2021/04/05 01:30:37;;;;;;;3.30;1.88;;;;;;;;;;3566278;40;20658;-71
2021/04/05 01:33:04;;;;;;;2.92;1.98;;;;;;;;;;3562594;40;20385;-71
2021/04/05 01:35:32;;;;;;;2.50;1.60;;;;;;;;;;3564715;40;20729;-71
2021/04/05 01:37:58;;;;;;;2.10;1.65;;;;;;;;;;3566953;40;20441;-71
2021/04/05 01:40:25;;;;;;;3.30;2.20;;;;;;;;;;3555289;40;20431;-72
2021/04/05 01:42:51;;;;;;;3.40;1.87;;;;;;;;;;3567259;40;20396;-72
2021/04/05 01:45:18;;;;;;;7.07;2.10;;;;;;;;;;3566986;40;20407;-71
2021/04/05 01:47:44;;;;;;;2.58;2.15;;;;;;;;;;3567102;40;20370;-71
2021/04/05 01:50:11;;;;;;;2.40;1.85;;;;;;;;;;3557814;40;20397;-71
2021/04/05 01:52:39;;;;;;;3.03;2.17;;;;;;;;;;3567190;40;20417;-71
2021/04/05 01:55:06;;;;;;;2.35;2.15;;;;;;;;;;3562869;40;20762;-72
2021/04/05 01:57:33;;;;;;;2.65;1.92;;;;;;;;;;3567301;40;20397;-71
2021/04/05 01:59:59;;;;;;;2.05;1.90;;;;;;;;;;3566529;40;20775;-71
2021/04/05 02:02:25;;;;;;;2.03;1.58;;;;;;;;;;3551592;40;20426;-70
2021/04/05 02:04:52;;;;;;;4.15;2.05;;;;;;;;;;3556986;40;20372;-70
2021/04/05 02:07:18;;;;;;;3.43;2.43;;;;;;;;;;3552822;40;20475;-71
2021/04/05 02:09:44;;;;;;;2.75;2.00;;;;;;;;;;3554776;40;20729;-71
2021/04/05 02:12:11;;;;;;;3.58;2.67;;;;;;;;;;3548979;40;21027;-72
2021/04/05 02:14:38;;;;;;;3.88;2.63;;;;;;;;;;3552645;40;20642;-71
2021/04/05 02:17:05;;;;;;;4.00;2.22;;;;;;;;;;3550109;40;20404;-73
2021/04/05 02:19:31;;;;;;;3.67;2.38;;;;;;;;;;3557189;40;20387;-70
2021/04/05 02:21:58;;;;;;;3.85;2.45;;;;;;;;;;3552827;40;20540;-68
2021/04/05 02:24:24;;;;;;;2.53;2.30;;;;;;;;;;3552193;40;20391;-68
2021/04/05 02:26:51;;;;;;;2.53;1.90;;;;;;;;;;3557111;40;20430;-68
2021/04/05 02:29:19;;;;;;;3.15;2.42;;;;;;;;;;3557901;40;20457;-70
2021/04/05 02:31:46;;;;;;;2.72;2.30;;;;;;;;;;3543940;40;20446;-69
2021/04/05 02:34:13;;;;;;;3.42;2.50;;;;;;;;;;3546210;40;20403;-69
2021/04/05 02:36:40;;;;;;;2.67;2.20;;;;;;;;;;3557074;40;20399;-69
2021/04/05 02:39:07;;;;;;;2.67;2.10;;;;;;;;;;3556979;40;20489;-69
2021/04/05 02:41:35;;;;;;;2.45;2.10;;;;;;;;;;3557200;40;20389;-69
2021/04/05 02:44:02;;;;;;;3.60;2.20;;;;;;;;;;3557019;40;20396;-69
2021/04/05 02:46:30;;;;;;;2.80;2.10;;;;;;;;;;3556886;40;20386;-69
2021/04/05 02:48:59;;;;;;;2.78;2.20;;;;;;;;;;3552269;40;20627;-69
2021/04/05 02:51:26;;;;;;;3.67;2.83;;;;;;;;;;3553016;40;20453;-67
2021/04/05 02:53:54;;;;;;;2.10;1.60;;;;;;;;;;3556322;40;20375;-62
2021/04/05 02:56:20;;;;;;;2.60;1.98;;;;;;;;;;3556234;40;20485;-62
2021/04/05 02:58:47;;;;;;;2.05;1.85;;;;;;;;;;3556321;40;20874;-63
2021/04/05 03:01:14;;;;;;;2.85;1.95;;;;;;;;;;3553422;40;20663;-63
2021/04/05 03:03:40;;;;;;;4.45;2.20;;;;;;;;;;3556078;40;20415;-62
2021/04/05 03:06:08;;;;;;;2.57;2.17;;;;;;;;;;3550928;40;20479;-62
2021/04/05 03:08:34;;;;;;;1.67;1.57;;;;;;;;;;3552829;40;20769;-62
2021/04/05 03:11:01;;;;;;;3.65;2.20;;;;;;;;;;3552613;40;20381;-62
2021/04/05 03:13:27;;;;;;;2.22;2.03;;;;;;;;;;3550173;40;20409;-62
2021/04/05 03:15:54;;;;;;;1.70;1.60;;;;;;;;;;3555710;40;20819;-62
2021/04/05 03:18:21;;;;;;;2.45;2.22;;;;;;;;;;3556034;40;20414;-62
2021/04/05 03:20:47;;;;;;;3.20;2.22;;;;;;;;;;3556057;40;20375;-62
2021/04/05 03:23:16;;;;;;;2.50;2.10;;;;;;;;;;3553561;40;20375;-62
2021/04/05 03:25:42;;;;;;;3.03;2.50;;;;;;;;;;3543626;40;20686;-62
2021/04/05 03:28:08;;;;;;;3.20;2.28;;;;;;;;;;3555995;40;20625;-63
2021/04/05 03:30:38;;;;;;;3.15;2.22;;;;;;;;;;3555906;40;20395;-63
2021/04/05 03:33:07;;;;;;;3.00;2.50;;;;;;;;;;3555961;40;20445;-62
2021/04/05 03:35:36;;;;;;;2.60;2.37;;;;;;;;;;3552066;40;20396;-62
2021/04/05 03:38:03;;;;;;;2.47;2.20;;;;;;;;;;3555769;40;20412;-62
2021/04/05 03:40:30;;;;;;;3.50;2.35;;;;;;;;;;3552913;40;20770;-62
2021/04/05 03:43:02;;;;;;;2.10;1.90;;;;;;;;;;3550646;40;20399;-63
2021/04/05 03:45:31;;;;;;;2.40;2.20;;;;;;;;;;3551545;40;20772;-62
2021/04/05 03:48:01;;;;;;;3.30;2.25;;;;;;;;;;3546736;40;20409;-63
2021/04/05 03:50:32;;;;;;;2.67;2.25;;;;;;;;;;3555229;40;20753;-62
2021/04/05 03:53:02;;;;;;;3.13;2.83;;;;;;;;;;3546636;40;20401;-63
2021/04/05 03:55:29;;;;;;;2.72;2.40;;;;;;;;;;3537218;40;20484;-63
2021/04/05 03:57:58;;;;;;;4.65;2.58;;;;;;;;;;3552968;40;20401;-63
2021/04/05 04:00:26;;;;;;;2.90;2.30;;;;;;;;;;3557444;40;20423;-67
2021/04/05 04:02:53;;;;;;;2.40;2.10;;;;;;;;;;3557132;40;20423;-62
2021/04/05 04:08:01;;;;;;;3.00;2.58;;;;;;;;;;3557449;40;20391;-62
2021/04/05 04:10:31;;;;;;;4.53;3.47;;;;;;;;;;3543754;40;20399;-62
2021/04/05 04:12:59;;;;;;;5.45;3.97;;;;;;;;;;3548383;40;20387;-63
2021/04/05 04:15:25;;;;;;;4.30;3.72;;;;;;;;;;3551482;40;20392;-62
2021/04/05 04:17:52;;;;;;;6.07;4.45;;;;;;;;;;3552864;40;20765;-62
2021/04/05 04:20:19;;;;;;;3.55;3.03;;;;;;;;;;3557214;40;20418;-63
2021/04/05 04:22:46;;;;;;;3.58;3.20;;;;;;;;;;3552956;40;20776;-62
2021/04/05 04:25:13;;;;;;;3.60;3.10;;;;;;;;;;3554815;40;20387;-62
2021/04/05 04:27:39;;;;;;;4.25;3.15;;;;;;;;;;3557357;40;20383;-61
2021/04/05 04:30:07;;;;;;;3.28;2.83;;;;;;;;;;3554122;40;20397;-62
2021/04/05 04:32:33;;;;;;;4.63;2.97;;;;;;;;;;3544590;40;20663;-62
2021/04/05 04:35:00;;;;;;;4.15;3.30;;;;;;;;;;3553225;40;20383;-63
2021/04/05 04:37:26;;;;;;;4.70;3.30;;;;;;;;;;3556982;40;20415;-62
2021/04/05 04:39:52;;;;;;;4.00;3.00;;;;;;;;;;3553952;40;20389;-63
2021/04/05 04:42:19;;;;;;;3.70;3.00;;;;;;;;;;3554584;40;20458;-62
2021/04/05 04:44:45;;;;;;;4.10;2.78;;;;;;;;;;3547770;40;20388;-64
2021/04/05 04:47:12;;;;;;;3.30;2.65;;;;;;;;;;3549743;40;20389;-64
2021/04/05 04:49:39;;;;;;;3.38;3.08;;;;;;;;;;3554838;40;20694;-64
2021/04/05 04:52:05;;;;;;;3.75;2.88;;;;;;;;;;3550861;40;20657;-62
2021/04/05 04:54:31;;;;;;;4.50;3.30;;;;;;;;;;3556537;40;20391;-61
2021/04/05 04:56:58;;;;;;;4.10;3.00;;;;;;;;;;3548391;40;20405;-62
2021/04/05 04:59:27;;;;;;;3.60;2.67;;;;;;;;;;3547356;40;20391;-62
2021/04/05 05:01:53;;;;;;;4.30;2.80;;;;;;;;;;3556626;40;20764;-62
2021/04/05 05:04:23;;;;;;;4.95;3.63;;;;;;;;;;3551468;40;20392;-63
2021/04/05 05:06:52;;;;;;;4.57;3.07;;;;;;;;;;3556713;40;20387;-62
2021/04/05 05:09:19;;;;;;;2.90;2.60;;;;;;;;;;3555482;40;20514;-63
2021/04/05 05:11:46;;;;;;;5.45;3.70;;;;;;;;;;3548802;40;20420;-63
2021/04/05 05:14:12;;;;;;;3.50;2.80;;;;;;;;;;3556692;40;20399;-62
2021/04/05 05:16:38;;;;;;;4.97;3.20;;;;;;;;;;3555479;40;20636;-62
2021/04/05 05:19:05;;;;;;;2.80;2.27;;;;;;;;;;3554656;40;20735;-63
2021/04/05 05:21:33;;;;;;;4.35;2.10;;;;;;;;;;3553055;40;20764;-62
2021/04/05 05:24:06;;;;;;;3.22;2.13;;;;;;;;;;3555091;40;20441;-62
2021/04/05 05:26:33;;;;;;;2.75;2.30;;;;;;;;;;3557152;40;20371;-61
2021/04/05 05:29:03;;;;;;;3.80;2.33;;;;;;;;;;3556806;40;20783;-62
2021/04/05 05:31:29;;;;;;;2.42;2.17;;;;;;;;;;3555701;40;20431;-62
2021/04/05 05:33:55;;;;;;;3.43;2.57;;;;;;;;;;3555191;40;20779;-63
2021/04/05 05:36:21;;;;;;;3.50;2.25;;;;;;;;;;3541782;40;20413;-63
2021/04/05 05:38:49;;;;;;;3.55;2.78;;;;;;;;;;3547306;40;20409;-62
2021/04/05 05:41:22;;;;;;;3.38;2.50;;;;;;;;;;3548883;40;20383;-62
2021/04/05 05:43:53;;;;;;;2.80;2.15;;;;;;;;;;3542407;40;20491;-62
2021/04/05 05:46:24;;;;;;;2.50;2.22;;;;;;;;;;3547189;40;20369;-62
2021/04/05 05:49:00;;;;;;;2.50;2.30;;;;;;;;;;3547245;40;20787;-64
2021/04/05 05:51:35;;;;;;;2.58;2.30;;;;;;;;;;3554508;40;20477;-62
2021/04/05 05:54:07;;;;;;;2.50;2.25;;;;;;;;;;3546513;40;20399;-62
2021/04/05 05:56:40;;;;;;;2.47;2.20;;;;;;;;;;3554210;40;20447;-62
2021/04/05 05:59:15;;;;;;;3.88;2.03;;;;;;;;;;3555895;40;20407;-62
2021/04/05 06:01:49;;;;;;;2.72;2.03;;;;;;;;;;3555633;40;20704;-62
2021/04/05 06:04:24;;;;;;;2.97;2.10;;;;;;;;;;3550485;40;20541;-62
2021/04/05 06:06:54;;;;;;;2.42;2.03;;;;;;;;;;3554113;40;20420;-64
2021/04/05 06:09:28;;;;;;;2.33;1.83;;;;;;;;;;3555329;40;20375;-62
2021/04/05 06:11:56;;;;;;;3.50;3.00;;;;;;;;;;3555866;40;20383;-62
2021/04/05 06:14:30;;;;;;;2.40;2.10;;;;;;;;;;3546866;40;20399;-62
2021/04/05 06:17:01;;;;;;;3.13;2.37;;;;;;;;;;3546569;40;20380;-62
2021/04/05 06:19:34;;;;;;;3.20;2.38;;;;;;;;;;3554421;40;20376;-62
2021/04/05 06:22:06;;;;;;;3.20;2.85;;;;;;;;;;3556805;40;20378;-63
2021/04/05 06:24:45;;;;;;;2.57;2.37;;;4.60;99.90;;;;;;3549078;40;20652;-62
2021/04/05 06:27:14;;;;;;;5.22;2.58;;;5.20;99.90;;;;;;3549359;40;20381;-62
2021/04/05 06:29:48;;;;;;;4.05;3.35;;;;;;;;;;3544464;40;20666;-63
2021/04/05 06:32:23;;;;;;;5.65;3.47;;;;;;;;;;3556724;40;20441;-62
2021/04/05 06:34:55;;;;;;;5.27;4.13;;;;;;;;;;3549760;40;20881;-62
2021/04/05 06:37:25;;;;;;;5.35;4.05;;;;;;;;;;3549807;40;20393;-65
2021/04/05 06:39:54;;;;;;;4.53;4.10;;;;;;;;;;3556528;40;20402;-62
2021/04/05 06:42:31;;;;;;;5.18;3.50;;;;;;;;;;3553354;40;20398;-62
2021/04/05 06:45:15;;;;;;;3.83;3.00;;;;;;;;;;3553746;40;20379;-62
2021/04/05 06:47:55;;;;;;;3.50;3.17;;;;;;;;;;3551964;40;20453;-62
2021/04/05 06:50:26;;;;;;;3.78;3.28;;;;;;;;;;3554826;40;20473;-62
2021/04/05 06:53:08;;;;;;;3.55;3.25;;;;;;;;;;3556266;40;20386;-62
2021/04/05 06:55:41;;;;;;;5.15;3.78;;;;;;;;;;3554719;40;20380;-62
2021/04/05 06:58:13;;;;;;;4.30;3.60;;;;;;;;;;3551577;40;20395;-63
2021/04/05 07:00:50;;;;;;;5.10;3.72;;;;;;;;;;3544648;40;20718;-63
2021/04/05 07:03:27;;;;;;;4.68;3.85;;;;;;;;;;3544428;40;20427;-62
2021/04/05 07:06:01;;;;;;;6.07;4.03;;;;;;;;;;3540356;40;20416;-62
2021/04/05 07:08:30;;;;;;;5.75;3.88;;;;;;;;;;3540929;40;20714;-62
2021/04/05 07:11:14;;;;;;;5.28;3.97;;;;;;;;;;3548319;40;20415;-62
2021/04/05 07:13:49;;;;;;;5.43;3.97;;;;;;;;;;3542867;40;20518;-62
2021/04/05 07:16:23;;;;;;;3.50;3.00;;;;;;;;;;3544942;40;20387;-63
2021/04/05 07:18:54;;;;;;;3.67;3.20;;;;;;;;;;3542661;40;20416;-62
2021/04/05 07:21:28;;;;;;;7.95;3.70;;;;;;;;;;3545992;40;20401;-62
2021/04/05 07:24:10;;;;;;;3.40;2.90;;;;;;;;;;3544528;40;20834;-62
2021/04/05 07:26:39;;;;;;;3.70;3.30;;;;;;;;;;3544533;40;20416;-62
2021/04/05 07:29:09;;;;;;;4.32;3.17;;;;;;;;;;3540205;40;20526;-62
2021/04/05 07:31:38;;;;;;;4.17;3.43;;;;;;;;;;3541071;40;20593;-63
2021/04/05 07:34:17;;;;;;;4.10;2.90;;;;;;;;;;3555144;40;20729;-63
2021/04/05 07:36:47;;;;;;;3.40;3.08;;;;;;;;;;3555890;40;20385;-62
2021/04/05 07:39:24;;;;;;;4.07;2.90;;;;;;;;;;3559773;40;20449;-62
2021/04/05 07:41:52;;;;;;;3.33;2.72;;;;;;;;;;3555640;40;20389;-63
2021/04/05 07:44:45;;;;;;;4.93;3.05;;;9.30;95.20;;;;;;3555300;40;20435;-62
2021/04/05 07:47:15;;;;;;;8.57;5.70;;;;;;;;;;3557557;40;20367;-63
2021/04/05 07:49:45;;;;;;;4.43;3.08;;;;;;;;;;3557504;40;20684;-63
2021/04/05 07:52:18;;;;;;;18.83;11.55;;;;;;;;;;3555050;40;20377;-63
2021/04/05 07:54:45;;;;;;;14.05;8.50;;;;;;;;;;3556242;40;20378;-62
2021/04/05 07:57:22;;;;;;;3.67;2.60;;;10.10;91.20;;;;;;3557232;40;20391;-63
2021/04/05 07:59:55;;;;;;;3.55;2.75;;;10.10;91.50;;;;;;3555758;40;20383;-63
2021/04/05 08:02:32;;;;;;;2.90;2.40;;;10.30;91.40;;;;;;3557507;40;20429;-63
2021/04/05 08:05:10;;;;;;;3.75;1.92;;;10.60;90.80;;;;;;3548449;40;20455;-62
2021/04/05 08:07:48;;;;;;;3.58;2.40;;;;;;;;;;3554395;40;20381;-63
2021/04/05 08:10:17;;;;;;;3.50;2.33;;;;;;;;;;3556689;40;20399;-62
2021/04/05 08:12:51;;;;;;;3.90;2.67;;;;;;;;;;3541737;40;20399;-63
2021/04/05 08:15:28;;;;;;;2.67;2.03;;;;;;;;;;3552829;40;20447;-63
2021/04/05 08:18:04;;;;;;;4.18;2.63;;;;;;;;;;3545200;40;20434;-62
2021/04/05 08:20:35;;;;;;;4.60;3.30;;;;;;;;;;3559165;40;20498;-63
2021/04/05 08:23:07;;;;;;;3.35;2.47;;;;;;;;;;3555105;40;20656;-62
2021/04/05 08:25:58;;;;;;;4.30;3.80;;;;;;;;;;3557614;40;20761;-62
2021/04/05 08:28:40;;;;;;;6.57;4.72;;;11.50;87.30;;;;;;3556878;40;20656;-63
2021/04/05 08:31:17;;;;;;;5.47;4.30;;;11.90;83.00;;;;;;3556943;40;20552;-63
2021/04/05 08:33:49;;;;;;;3.35;2.90;;;;;;;;;;3556675;40;20518;-63
2021/04/05 08:36:18;;;;;;;4.28;2.88;;;;;;;;;;3547701;40;20748;-63
2021/04/05 08:38:48;;;;;;;4.28;2.80;;;;;;;;;;3557188;40;20410;-63
2021/04/05 08:41:20;;;;;;;4.03;2.85;;;;;;;;;;3556152;40;20388;-63
2021/04/05 08:43:54;;;;;;;3.70;2.47;;;;;;;;;;3552159;40;20411;-63
2021/04/05 08:46:23;;;;;;;11.20;6.67;;;;;;;;;;3557188;40;20476;-63
2021/04/05 08:48:52;;;;;;;21.67;14.82;;;;;;;;;;3555242;40;20383;-63
2021/04/05 08:51:19;;;;;;;4.93;3.22;;;;;;;;;;3556650;40;20379;-63
2021/04/05 08:53:48;;;;;;;3.35;2.85;;;;;;;;;;3556651;40;20481;-63
2021/04/05 08:56:17;;;;;;;3.95;2.90;;;;;;;;;;3562012;40;20701;-63
2021/04/05 08:58:46;;;;;;;3.40;2.17;;;;;;;;;;3555379;40;20399;-63
2021/04/05 09:01:14;;;;;;;3.60;2.60;;;;;;;;;;3555384;40;20792;-63
2021/04/05 09:03:43;;;;;;;3.70;2.42;;;;;;;;;;3556380;40;21634;-63
2021/04/05 09:06:12;;;;;;;5.05;2.70;;;;;;;;;;3553847;40;20380;-64
2021/04/05 09:08:39;;;;;;;4.75;2.20;;;;;;;;;;3548745;40;20405;-63
2021/04/05 09:11:05;;;;;;;3.15;2.30;;;;;;;;;;3555124;40;20414;-64
2021/04/05 09:13:35;;;;;;;3.47;2.60;;;;;;;;;;3554104;40;20483;-63
2021/04/05 09:16:16;;;;;;;5.28;2.92;;;;;;;;;;3554876;40;20770;-63
2021/04/05 09:19:00;;;;;;;3.67;2.58;;;;;;;;;;3538678;40;20793;-63
2021/04/05 09:21:38;;;;;;;7.05;4.10;;;;;;;;;;3555910;40;20381;-64
2021/04/05 09:24:23;;;;;;;3.40;2.30;;;;;;;;;;3554602;40;20664;-63
2021/04/05 09:27:01;;;;;;;4.80;3.60;;;;;;;;;;3548834;40;20448;-64
2021/04/05 09:29:39;;;;;;;5.70;2.88;;;12.80;69.30;;;;;;3554806;40;20383;-63
2021/04/05 09:32:41;;;;;;;5.88;3.80;;;14.10;65.40;;;;;;3545281;40;20402;-63
2021/04/05 09:35:29;;;;;;;13.70;12.20;;;14.20;64.90;;;;;;3555562;40;20897;-65
2021/04/05 09:38:16;;;;;;;3.40;2.90;;;;;;;;;;3554962;40;20672;-63
2021/04/05 09:40:51;;;;;;;4.07;2.67;;;;;;;;;;3523859;40;20400;-63
2021/04/05 09:44:05;;;;;;;4.22;2.38;;;14.50;62.80;;;;;;3523242;40;20398;-62
2021/04/05 09:46:50;;;;;;;3.28;2.80;;;14.00;62.80;;;;;;3518874;40;20408;-63
2021/04/05 09:49:24;;;;;;;5.03;3.58;;;14.10;67.50;;;;;;3521552;40;20398;-64
2021/04/05 09:52:07;;;;;;;9.52;7.95;;;14.00;66.00;;;;;;3536532;40;20462;-63
2021/04/05 09:54:35;;;;;;;3.47;2.70;;;;;;;;;;3540491;40;20385;-63
2021/04/05 09:57:04;;;;;;;3.33;2.40;;;;;;;;;;3554006;40;20411;-64
2021/04/05 09:59:40;;;;;;;3.47;2.80;;;;;;;;;;3552384;40;20411;-64
2021/04/05 10:02:07;;;;;;;5.78;3.05;;;;;;;;;;3555263;40;20403;-64
2021/04/05 10:04:34;;;;;;;5.53;3.13;;;;;;;;;;3551888;40;20385;-64
2021/04/05 10:07:05;;;;;;;3.85;3.45;;;;;;;;;;3554410;40;20649;-63
2021/04/05 10:09:32;;;;;;;3.78;2.58;;;14.30;63.90;;;;;;3552649;40;20622;-64
2021/04/05 10:12:01;;;;;;;5.93;3.95;;;;;;;;;;3555706;40;20419;-63
2021/04/05 10:14:28;;;;;;;5.50;4.50;;;;;;;;;;3546808;40;20455;-64
2021/04/05 10:16:56;;;;;;;5.65;3.85;;;;;;;;;;3553511;40;20383;-64
2021/04/05 10:19:26;;;;;;;5.88;3.40;;;;;;;;;;3556401;40;20779;-63
2021/04/05 10:21:57;;;;;;;3.40;2.70;;;15.70;58.10;;;;;;3553056;40;20792;-63
2021/04/05 10:24:25;;;;;;;3.92;2.67;;;15.70;59.90;;;;;;3555349;40;20625;-63
2021/04/05 10:26:54;;;;;;;4.15;3.05;;;15.20;60.00;;;;;;3547030;40;20407;-63
2021/04/05 10:29:24;;;;;;;6.55;4.68;;;15.50;60.80;;;;;;3554789;40;20460;-64
2021/04/05 10:31:50;;;;;;;5.65;3.95;;;15.70;59.60;;;;;;3556672;40;20383;-63
2021/04/05 10:34:20;;;;;;;5.20;2.53;;;15.10;59.10;;;;;;3548833;40;20404;-63
2021/04/05 10:36:49;;;;;;;5.50;3.28;;;15.10;59.80;;;;;;3556449;40;20399;-63
2021/04/05 10:39:15;;;;;;;5.05;3.55;;;15.40;60.60;;;;;;3546031;40;20417;-63
2021/04/05 10:41:52;;;;;;;5.35;3.95;;;15.40;59.80;;;;;;3555184;40;20733;-68
2021/04/05 10:44:20;;;;;;;6.57;4.05;;;15.30;60.60;;;;;;3549291;40;20399;-64
2021/04/05 10:46:49;;;;;;;6.65;3.78;;;;;;;;;;3549719;40;20416;-64
2021/04/05 10:49:17;;;;;;;4.03;3.00;;;;;;;;;;3540653;40;20399;-64
2021/04/05 10:51:45;;;;;;;6.13;3.30;;;;;;;;;;3551487;40;20389;-64
2021/04/05 10:54:16;;;;;;;3.92;2.88;;;15.00;61.30;;;;;;3550922;40;20373;-63
2021/04/05 10:56:46;;;;;;;4.53;2.97;;;;;;;;;;3551109;40;20383;-65
2021/04/05 10:59:14;;;;;;;6.18;4.03;;;;;;;;;;3551949;40;20838;-64
2021/04/05 11:01:43;;;;;;;4.43;3.60;;;;;;;;;;3549693;40;20400;-64
2021/04/05 11:04:11;;;;;;;6.88;4.53;;;15.00;65.50;;;;;;3551155;40;20687;-65
2021/04/05 11:06:38;;;;;;;6.43;3.97;;;15.20;59.10;;;;;;3552008;40;20402;-63
2021/04/05 11:09:06;;;;;;;6.85;4.00;;;;;;;;;;3552349;40;20396;-64
2021/04/05 11:11:33;;;;;;;5.53;3.47;;;;;;;;;;3551900;40;20399;-64
2021/04/05 11:14:03;;;;;;;3.28;2.78;;;;;;;;;;3552964;40;20464;-63
2021/04/05 11:16:29;;;;;;;3.78;2.75;;;;;;;;;;3552402;40;20392;-63
2021/04/05 11:18:56;;;;;;;3.40;2.80;;;;;;;;;;3552285;40;20439;-64
2021/04/05 11:21:32;;;;;;;4.85;2.92;;;15.00;61.20;;;;;;3552711;40;20412;-64
2021/04/05 11:24:01;;;;;;;6.25;3.63;;;16.30;56.00;;;;;;3551998;40;20467;-64
2021/04/05 11:26:32;;;;;;;4.97;3.25;;;16.00;55.50;;;;;;3552669;40;20415;-65
2021/04/05 11:29:03;;;;;;;4.95;3.42;;;16.10;58.70;;;;;;3551612;40;20428;-65
2021/04/05 11:31:34;;;;;;;5.30;3.47;;;16.30;57.50;;;;;;3551358;40;20400;-65
2021/04/05 11:34:01;;;;;;;5.60;3.45;;;16.50;58.40;;;;;;3552169;40;20380;-64
2021/04/05 11:36:34;;;;;;;5.10;3.45;;;16.10;55.60;;;;;;3551241;40;20627;-65
2021/04/05 11:39:00;;;;;;;4.60;3.13;;;15.80;58.50;;;;;;3542889;40;20411;-64
2021/04/05 11:41:29;;;;;;;5.75;3.38;;;16.30;57.40;;;;;;3551642;40;20408;-64
2021/04/05 11:43:58;;;;;;;7.13;3.78;;;16.40;57.20;;;;;;3551130;40;20774;-64
2021/04/05 11:46:29;;;;;;;5.70;3.60;;;16.10;54.50;;;;;;3551985;40;20411;-64
2021/04/05 11:49:04;;;;;;;5.35;3.40;;;15.60;58.20;;;;;;3542879;40;20782;-64
2021/04/05 11:51:38;;;;;;;6.53;3.75;;;15.40;58.00;;;;;;3552385;40;20490;-64
2021/04/05 11:54:07;;;;;;;4.63;3.63;;;15.20;58.20;;;;;;3551988;40;20467;-64
2021/04/05 11:56:35;;;;;;;4.18;3.22;;;15.30;60.60;;;;;;3550855;40;20397;-64
2021/04/05 11:59:06;;;;;;;5.80;3.88;;;15.50;59.60;;;;;;3551676;40;20517;-66
2021/04/05 12:01:44;;;;;;;5.38;3.70;;;15.60;57.00;;;;;;3541904;40;20444;-63
2021/04/05 12:04:17;;;;;;;5.18;3.72;;;15.20;58.10;;;;;;3550176;40;20393;-63
2021/04/05 12:06:47;;;;;;;5.33;3.60;;;15.30;59.40;;;;;;3552018;40;20526;-64
2021/04/05 12:09:20;;;;;;;5.47;3.50;;;15.60;57.40;;;;;;3551969;40;20375;-64
2021/04/05 12:11:51;;;;;;;5.20;3.92;;;15.70;56.00;;;;;;3542137;40;20401;-66
2021/04/05 12:14:22;;;;;;;4.10;3.03;;;15.20;58.20;;;;;;3541723;40;20397;-64
2021/04/05 12:16:52;;;;;;;5.22;3.42;;;14.80;58.50;;;;;;3550457;40;20388;-63
2021/04/05 12:19:22;;;;;;;5.18;3.53;;;14.70;59.20;;;;;;3542901;40;20433;-63
2021/04/05 12:21:51;;;;;;;6.63;3.80;;;15.00;59.70;;;;;;3552362;40;20516;-64
2021/04/05 12:24:25;;;;;;;5.95;4.00;;;15.10;58.30;;;;;;3550410;40;20428;-64
2021/04/05 12:26:55;;;;;;;10.25;6.82;;;15.20;57.70;;;;;;3552460;40;20379;-64
2021/04/05 12:29:24;;;;;;;7.40;4.65;;;15.60;59.30;;;;;;3550414;40;20396;-64
2021/04/05 12:31:53;;;;;;;4.53;2.90;;;;;;;;;;3551115;40;20502;-64
2021/04/05 12:34:20;;;;;;;5.05;2.78;;;;;;;;;;3548081;40;20423;-64
2021/04/05 12:36:46;;;;;;;4.95;3.30;;;;;;;;;;3553809;40;20773;-64
2021/04/05 12:39:13;;;;;;;5.28;3.08;;;;;;;;;;3542591;40;20788;-65
2021/04/05 12:41:40;;;;;;;5.83;3.37;;;;;;;;;;3550807;40;20467;-66
2021/04/05 12:44:08;;;;;;;4.55;2.85;;;;;;;;;;3543119;40;20807;-65
2021/04/05 12:46:35;;;;;;;5.82;3.25;;;;;;;;;;3551763;40;20400;-65
2021/04/05 12:49:03;;;;;;;4.47;3.20;;;;;;;;;;3542855;40;20411;-64
2021/04/05 12:51:29;;;;;;;5.30;2.92;;;;;;;;;;3548566;40;20449;-64
2021/04/05 12:54:00;;;;;;;5.20;3.20;;;;;;;;;;3550970;40;20436;-65
2021/04/05 12:56:27;;;;;;;5.85;3.85;;;;;;;;;;3552237;40;20387;-64
2021/04/05 12:58:54;;;;;;;4.55;3.20;;;17.80;55.00;;;;;;3552892;40;20557;-64
2021/04/05 13:01:26;;;;;;;3.87;2.67;;;16.50;56.10;;;;;;3555166;40;20880;-65
2021/04/05 13:03:53;;;;;;;5.22;3.10;;;16.60;55.00;;;;;;3547691;40;20411;-67
2021/04/05 13:06:23;;;;;;;4.80;4.30;;;16.80;55.60;;;;;;3554940;40;20418;-67
2021/04/05 13:08:53;;;;;;;3.90;3.20;;;17.30;57.60;;;;;;3555005;40;20386;-66
2021/04/05 13:11:23;;;;;;;4.20;2.75;;;17.30;54.20;;;;;;3557028;40;20516;-67
2021/04/05 13:13:52;;;;;;;3.83;2.90;;;17.20;54.70;;;;;;3548939;40;20385;-67
2021/04/05 13:16:24;;;;;;;3.78;2.72;;;17.10;53.60;;;;;;3544107;40;20731;-67
2021/04/05 13:18:53;;;;;;;3.80;2.87;;;;;;;;;;3552475;40;20479;-67
2021/04/05 13:21:20;;;;;;;5.07;3.23;;;;;;;;;;3556985;40;20387;-67
2021/04/05 13:23:51;;;;;;;4.25;3.20;;;16.30;54.50;;;;;;3557218;40;20399;-68
2021/04/05 13:26:29;;;;;;;3.80;2.97;;;15.60;55.80;;;;;;3556805;40;20378;-67
2021/04/05 13:28:56;;;;;;;5.50;3.10;;;15.80;57.20;;;;;;3554737;40;20470;-68
2021/04/05 13:31:23;;;;;;;4.00;3.00;;;15.60;55.90;;;;;;3553582;40;20378;-68
2021/04/05 13:33:52;;;;;;;5.82;2.83;;;15.50;56.90;;;;;;3556280;40;20779;-68
2021/04/05 13:36:20;;;;;;;3.40;2.60;;;15.70;58.70;;;;;;3554227;40;20501;-68
2021/04/05 13:38:56;;;;;;;3.88;3.00;;;15.80;56.90;;;;;;3543588;40;20815;-68
2021/04/05 13:41:27;;;;;;;3.83;2.65;;;16.20;58.00;;;;;;3552634;40;20384;-68
2021/04/05 13:43:55;;;;;;;5.72;3.00;;;16.00;55.50;;;;;;3553267;40;20382;-68
2021/04/05 13:46:23;;;;;;;5.10;2.97;;;16.10;55.00;;;;;;3553012;40;20376;-68
2021/04/05 13:48:58;;;;;;;4.50;3.00;;;16.00;57.00;;;;;;3550524;40;20397;-68
2021/04/05 13:51:28;;;;;;;6.00;2.90;;;15.80;55.50;;;;;;3550688;40;20393;-68
2021/04/05 13:53:58;;;;;;;4.35;2.63;;;15.70;56.50;;;;;;3555256;40;20419;-68
2021/04/05 13:56:28;;;;;;;5.13;2.65;;;15.90;58.00;;;;;;3556533;40;20394;-68
2021/04/05 13:58:58;;;;;;;5.00;2.80;;;16.40;56.20;;;;;;3556438;40;20407;-68
2021/04/05 14:01:28;;;;;;;3.22;2.45;;;16.40;56.30;;;;;;3553179;40;20481;-68
2021/04/05 14:03:55;;;;;;;3.95;2.97;;;;;;;;;;3555211;40;20399;-68
2021/04/05 14:06:24;;;;;;;3.80;2.83;;;;;;;;;;3556127;40;21351;-68
2021/04/05 14:08:52;;;;;;;3.47;2.97;;;16.50;56.20;;;;;;3555211;40;20792;-68
2021/04/05 14:11:22;;;;;;;3.83;2.80;;;;;;;;;;3555800;40;20383;-68
2021/04/05 14:13:52;;;;;;;3.58;2.70;;;;;;;;;;3553891;40;20397;-68
2021/04/05 14:16:21;;;;;;;3.22;2.78;;;;;;;;;;3553364;40;20384;-68
2021/04/05 14:18:52;;;;;;;4.18;2.70;;;;;;;;;;3554906;40;20461;-68
2021/04/05 14:21:20;;;;;;;5.07;2.92;;;;;;;;;;3546244;40;20784;-69
2021/04/05 14:23:47;;;;;;;5.13;2.88;;;;;;;;;;3554593;40;20383;-69
2021/04/05 14:26:15;;;;;;;4.68;2.72;;;;;;;;;;3555952;40;20432;-68